Woodstock, Canada
Current Conditions -  °F | °C
As of 9:53 AM on Monday 20 Oct 2014 (Local Time) from KHUL Reporting Station
Overcast Overcast  
Wind Chill: 30°   Ceiling: 3000
Heat Index: 37°   Visibility: 10mi
Dew Point: 27°   Wind: 9mph
Humidity: 67%   Direction: 300°WNW
Pressure: 29.82"   Gusts: 21mph
Location:  46.15°N, 67.58°W
Report Text: KHUL 201253Z AUTO 30008G18KT 10SM OVC030 03/M03 A2982 RMK AO2 SLP103 T00281028
Loading
Personal Weather Stations






























Interactive Weather Map
Tropical Storm Tracking
New forecast layout! Learn more

10-Day Weather Forecast

Advertisements
Track Severe Weather on mobile